sensor_id;sensor_type;location;lat;lon;timestamp;P1;durP1;ratioP1;P2;durP2;ratioP2
71637;SDS011;59485;43.542;-5.676;2023-06-24T00:00:59;20.50;;;12.03;;
71637;SDS011;59485;43.542;-5.676;2023-06-24T00:03:25;18.88;;;10.15;;
71637;SDS011;59485;43.542;-5.676;2023-06-24T00:05:54;18.10;;;9.23;;
71637;SDS011;59485;43.542;-5.676;2023-06-24T00:08:22;21.57;;;11.40;;
71637;SDS011;59485;43.542;-5.676;2023-06-24T00:10:48;15.32;;;9.70;;
71637;SDS011;59485;43.542;-5.676;2023-06-24T00:13:14;16.38;;;9.45;;
71637;SDS011;59485;43.542;-5.676;2023-06-24T00:15:41;14.77;;;8.98;;
71637;SDS011;59485;43.542;-5.676;2023-06-24T00:18:08;13.52;;;8.27;;
71637;SDS011;59485;43.542;-5.676;2023-06-24T00:20:34;17.67;;;9.77;;
71637;SDS011;59485;43.542;-5.676;2023-06-24T00:23:00;17.35;;;10.80;;
71637;SDS011;59485;43.542;-5.676;2023-06-24T00:25:25;22.50;;;13.50;;
71637;SDS011;59485;43.542;-5.676;2023-06-24T00:27:51;34.50;;;19.10;;
71637;SDS011;59485;43.542;-5.676;2023-06-24T00:30:17;21.50;;;11.93;;
71637;SDS011;59485;43.542;-5.676;2023-06-24T00:32:42;19.33;;;9.47;;
71637;SDS011;59485;43.542;-5.676;2023-06-24T00:35:08;18.02;;;9.90;;
71637;SDS011;59485;43.542;-5.676;2023-06-24T00:37:35;17.23;;;10.15;;
71637;SDS011;59485;43.542;-5.676;2023-06-24T00:40:01;17.17;;;9.50;;
71637;SDS011;59485;43.542;-5.676;2023-06-24T00:42:28;18.63;;;10.43;;
71637;SDS011;59485;43.542;-5.676;2023-06-24T00:44:54;18.00;;;10.83;;
71637;SDS011;59485;43.542;-5.676;2023-06-24T00:47:19;18.38;;;10.88;;
71637;SDS011;59485;43.542;-5.676;2023-06-24T00:49:45;21.10;;;10.27;;
71637;SDS011;59485;43.542;-5.676;2023-06-24T00:52:11;18.07;;;10.43;;
71637;SDS011;59485;43.542;-5.676;2023-06-24T00:54:41;18.13;;;9.20;;
71637;SDS011;59485;43.542;-5.676;2023-06-24T00:57:10;20.95;;;10.27;;
71637;SDS011;59485;43.542;-5.676;2023-06-24T00:59:37;19.67;;;9.05;;
71637;SDS011;59485;43.542;-5.676;2023-06-24T01:02:03;16.45;;;8.30;;
71637;SDS011;59485;43.542;-5.676;2023-06-24T01:04:30;13.80;;;8.30;;
71637;SDS011;59485;43.542;-5.676;2023-06-24T01:06:57;15.65;;;8.27;;
71637;SDS011;59485;43.542;-5.676;2023-06-24T01:09:23;17.25;;;8.88;;
71637;SDS011;59485;43.542;-5.676;2023-06-24T01:11:49;17.73;;;8.48;;
71637;SDS011;59485;43.542;-5.676;2023-06-24T01:14:15;19.13;;;9.37;;
71637;SDS011;59485;43.542;-5.676;2023-06-24T01:16:56;18.25;;;9.70;;
71637;SDS011;59485;43.542;-5.676;2023-06-24T01:19:33;20.92;;;8.80;;
71637;SDS011;59485;43.542;-5.676;2023-06-24T01:33:03;18.30;;;9.05;;
71637;SDS011;59485;43.542;-5.676;2023-06-24T01:35:33;17.02;;;8.48;;
71637;SDS011;59485;43.542;-5.676;2023-06-24T01:38:01;16.60;;;8.63;;
71637;SDS011;59485;43.542;-5.676;2023-06-24T01:40:34;20.73;;;11.05;;
71637;SDS011;59485;43.542;-5.676;2023-06-24T01:43:10;16.08;;;10.68;;
71637;SDS011;59485;43.542;-5.676;2023-06-24T01:45:56;12.32;;;8.38;;
71637;SDS011;59485;43.542;-5.676;2023-06-24T01:48:28;18.17;;;10.32;;
71637;SDS011;59485;43.542;-5.676;2023-06-24T01:51:00;16.10;;;8.53;;
71637;SDS011;59485;43.542;-5.676;2023-06-24T01:53:32;14.60;;;8.88;;
71637;SDS011;59485;43.542;-5.676;2023-06-24T01:56:01;18.98;;;9.25;;
71637;SDS011;59485;43.542;-5.676;2023-06-24T01:58:28;17.38;;;9.13;;
71637;SDS011;59485;43.542;-5.676;2023-06-24T02:00:56;21.38;;;10.52;;
71637;SDS011;59485;43.542;-5.676;2023-06-24T02:03:22;18.43;;;10.90;;
71637;SDS011;59485;43.542;-5.676;2023-06-24T02:05:49;18.75;;;10.50;;
71637;SDS011;59485;43.542;-5.676;2023-06-24T02:08:17;16.13;;;9.52;;
71637;SDS011;59485;43.542;-5.676;2023-06-24T02:10:46;17.90;;;9.50;;
71637;SDS011;59485;43.542;-5.676;2023-06-24T02:13:12;19.17;;;9.75;;
71637;SDS011;59485;43.542;-5.676;2023-06-24T02:15:38;19.07;;;10.03;;
71637;SDS011;59485;43.542;-5.676;2023-06-24T02:18:06;15.35;;;7.35;;
71637;SDS011;59485;43.542;-5.676;2023-06-24T02:20:34;17.40;;;8.75;;
71637;SDS011;59485;43.542;-5.676;2023-06-24T02:28:11;13.52;;;7.00;;
71637;SDS011;59485;43.542;-5.676;2023-06-24T02:38:23;15.70;;;8.90;;
71637;SDS011;59485;43.542;-5.676;2023-06-24T02:46:11;16.40;;;10.30;;
71637;SDS011;59485;43.542;-5.676;2023-06-24T02:48:36;17.40;;;10.02;;
71637;SDS011;59485;43.542;-5.676;2023-06-24T02:51:05;22.20;;;12.83;;
71637;SDS011;59485;43.542;-5.676;2023-06-24T02:53:32;21.02;;;10.85;;
71637;SDS011;59485;43.542;-5.676;2023-06-24T02:55:58;19.90;;;11.05;;
71637;SDS011;59485;43.542;-5.676;2023-06-24T02:58:24;17.95;;;10.52;;
71637;SDS011;59485;43.542;-5.676;2023-06-24T03:00:59;20.13;;;13.13;;
71637;SDS011;59485;43.542;-5.676;2023-06-24T03:03:27;17.45;;;10.57;;
71637;SDS011;59485;43.542;-5.676;2023-06-24T03:05:56;19.98;;;11.48;;
71637;SDS011;59485;43.542;-5.676;2023-06-24T03:08:22;22.00;;;11.77;;
71637;SDS011;59485;43.542;-5.676;2023-06-24T03:10:49;17.92;;;10.98;;
71637;SDS011;59485;43.542;-5.676;2023-06-24T03:13:16;20.10;;;12.53;;
71637;SDS011;59485;43.542;-5.676;2023-06-24T03:15:41;19.40;;;11.70;;
71637;SDS011;59485;43.542;-5.676;2023-06-24T03:18:07;20.33;;;11.53;;
71637;SDS011;59485;43.542;-5.676;2023-06-24T03:20:33;20.70;;;12.65;;
71637;SDS011;59485;43.542;-5.676;2023-06-24T03:23:05;21.75;;;12.35;;
71637;SDS011;59485;43.542;-5.676;2023-06-24T03:25:31;20.70;;;11.93;;
71637;SDS011;59485;43.542;-5.676;2023-06-24T03:27:57;22.55;;;12.23;;
71637;SDS011;59485;43.542;-5.676;2023-06-24T03:30:23;20.27;;;11.35;;
71637;SDS011;59485;43.542;-5.676;2023-06-24T03:32:49;21.53;;;10.67;;
71637;SDS011;59485;43.542;-5.676;2023-06-24T03:35:14;17.40;;;10.10;;
71637;SDS011;59485;43.542;-5.676;2023-06-24T03:37:40;16.80;;;9.27;;
71637;SDS011;59485;43.542;-5.676;2023-06-24T03:40:06;15.68;;;9.95;;
71637;SDS011;59485;43.542;-5.676;2023-06-24T03:42:33;16.73;;;9.83;;
71637;SDS011;59485;43.542;-5.676;2023-06-24T03:44:58;16.25;;;9.80;;
71637;SDS011;59485;43.542;-5.676;2023-06-24T03:47:24;18.23;;;9.47;;
71637;SDS011;59485;43.542;-5.676;2023-06-24T03:49:49;20.47;;;10.10;;
71637;SDS011;59485;43.542;-5.676;2023-06-24T03:52:16;20.20;;;9.88;;
71637;SDS011;59485;43.542;-5.676;2023-06-24T03:54:42;19.92;;;11.18;;
71637;SDS011;59485;43.542;-5.676;2023-06-24T03:57:08;17.53;;;11.30;;
71637;SDS011;59485;43.542;-5.676;2023-06-24T03:59:33;16.70;;;10.20;;
71637;SDS011;59485;43.542;-5.676;2023-06-24T04:01:59;18.73;;;11.00;;
71637;SDS011;59485;43.542;-5.676;2023-06-24T04:04:25;20.77;;;10.82;;
71637;SDS011;59485;43.542;-5.676;2023-06-24T04:06:51;20.20;;;11.02;;
71637;SDS011;59485;43.542;-5.676;2023-06-24T04:09:17;16.73;;;11.40;;
71637;SDS011;59485;43.542;-5.676;2023-06-24T04:11:42;18.67;;;10.60;;
71637;SDS011;59485;43.542;-5.676;2023-06-24T04:14:08;18.80;;;11.80;;
71637;SDS011;59485;43.542;-5.676;2023-06-24T04:16:34;19.33;;;12.03;;
71637;SDS011;59485;43.542;-5.676;2023-06-24T04:19:00;21.63;;;12.13;;
71637;SDS011;59485;43.542;-5.676;2023-06-24T04:21:26;22.42;;;12.23;;
71637;SDS011;59485;43.542;-5.676;2023-06-24T04:23:52;20.08;;;11.85;;
71637;SDS011;59485;43.542;-5.676;2023-06-24T04:26:18;17.67;;;11.70;;
71637;SDS011;59485;43.542;-5.676;2023-06-24T04:28:44;18.40;;;11.00;;
71637;SDS011;59485;43.542;-5.676;2023-06-24T04:31:09;28.67;;;15.20;;
71637;SDS011;59485;43.542;-5.676;2023-06-24T04:33:35;32.90;;;18.00;;
71637;SDS011;59485;43.542;-5.676;2023-06-24T04:36:00;29.33;;;17.02;;
71637;SDS011;59485;43.542;-5.676;2023-06-24T04:38:26;37.23;;;19.03;;
71637;SDS011;59485;43.542;-5.676;2023-06-24T04:40:52;23.33;;;14.27;;
71637;SDS011;59485;43.542;-5.676;2023-06-24T04:43:18;21.65;;;11.55;;
71637;SDS011;59485;43.542;-5.676;2023-06-24T04:45:43;24.57;;;12.93;;
71637;SDS011;59485;43.542;-5.676;2023-06-24T04:48:09;21.17;;;12.27;;
71637;SDS011;59485;43.542;-5.676;2023-06-24T04:50:34;23.23;;;12.68;;
71637;SDS011;59485;43.542;-5.676;2023-06-24T04:53:00;21.73;;;11.80;;
71637;SDS011;59485;43.542;-5.676;2023-06-24T04:55:27;22.77;;;13.00;;
71637;SDS011;59485;43.542;-5.676;2023-06-24T04:57:55;22.20;;;13.15;;
71637;SDS011;59485;43.542;-5.676;2023-06-24T05:00:20;27.33;;;12.83;;
71637;SDS011;59485;43.542;-5.676;2023-06-24T05:02:48;23.67;;;13.15;;
71637;SDS011;59485;43.542;-5.676;2023-06-24T05:05:13;24.47;;;14.47;;
71637;SDS011;59485;43.542;-5.676;2023-06-24T05:07:39;24.52;;;14.57;;
71637;SDS011;59485;43.542;-5.676;2023-06-24T05:10:05;26.27;;;15.20;;
71637;SDS011;59485;43.542;-5.676;2023-06-24T05:12:30;24.48;;;15.25;;
71637;SDS011;59485;43.542;-5.676;2023-06-24T05:14:56;25.80;;;15.10;;
71637;SDS011;59485;43.542;-5.676;2023-06-24T05:17:21;22.50;;;12.95;;
71637;SDS011;59485;43.542;-5.676;2023-06-24T05:19:47;26.43;;;15.60;;
71637;SDS011;59485;43.542;-5.676;2023-06-24T05:22:13;26.83;;;15.43;;
71637;SDS011;59485;43.542;-5.676;2023-06-24T05:24:38;26.38;;;15.50;;
71637;SDS011;59485;43.542;-5.676;2023-06-24T05:27:05;33.77;;;15.73;;
71637;SDS011;59485;43.542;-5.676;2023-06-24T05:29:32;26.95;;;15.20;;
71637;SDS011;59485;43.542;-5.676;2023-06-24T05:31:58;28.10;;;15.23;;
71637;SDS011;59485;43.542;-5.676;2023-06-24T05:34:24;28.63;;;15.73;;
71637;SDS011;59485;43.542;-5.676;2023-06-24T05:36:50;28.97;;;16.60;;
71637;SDS011;59485;43.542;-5.676;2023-06-24T05:39:16;31.07;;;15.70;;
71637;SDS011;59485;43.542;-5.676;2023-06-24T05:41:42;30.55;;;15.98;;
71637;SDS011;59485;43.542;-5.676;2023-06-24T05:44:08;27.63;;;17.45;;
71637;SDS011;59485;43.542;-5.676;2023-06-24T05:46:35;29.00;;;15.67;;
71637;SDS011;59485;43.542;-5.676;2023-06-24T05:49:01;28.30;;;15.55;;
71637;SDS011;59485;43.542;-5.676;2023-06-24T05:51:27;27.17;;;15.60;;
71637;SDS011;59485;43.542;-5.676;2023-06-24T05:53:53;29.73;;;14.40;;
71637;SDS011;59485;43.542;-5.676;2023-06-24T05:56:19;25.52;;;15.32;;
71637;SDS011;59485;43.542;-5.676;2023-06-24T05:58:46;26.93;;;15.70;;
71637;SDS011;59485;43.542;-5.676;2023-06-24T06:01:12;29.35;;;15.98;;
71637;SDS011;59485;43.542;-5.676;2023-06-24T06:03:37;26.37;;;15.70;;
71637;SDS011;59485;43.542;-5.676;2023-06-24T06:06:03;30.30;;;15.60;;
71637;SDS011;59485;43.542;-5.676;2023-06-24T06:08:29;27.50;;;15.68;;
71637;SDS011;59485;43.542;-5.676;2023-06-24T06:10:55;28.77;;;17.40;;
71637;SDS011;59485;43.542;-5.676;2023-06-24T06:13:20;32.23;;;17.17;;
71637;SDS011;59485;43.542;-5.676;2023-06-24T06:15:46;30.17;;;16.25;;
71637;SDS011;59485;43.542;-5.676;2023-06-24T06:18:12;31.40;;;16.90;;
71637;SDS011;59485;43.542;-5.676;2023-06-24T06:20:37;33.63;;;18.50;;
71637;SDS011;59485;43.542;-5.676;2023-06-24T06:23:03;34.80;;;18.70;;
71637;SDS011;59485;43.542;-5.676;2023-06-24T06:25:28;33.47;;;17.73;;
71637;SDS011;59485;43.542;-5.676;2023-06-24T06:27:54;35.08;;;18.85;;
71637;SDS011;59485;43.542;-5.676;2023-06-24T06:30:19;32.27;;;19.73;;
71637;SDS011;59485;43.542;-5.676;2023-06-24T06:32:45;42.07;;;20.00;;
71637;SDS011;59485;43.542;-5.676;2023-06-24T06:35:10;33.17;;;18.73;;
71637;SDS011;59485;43.542;-5.676;2023-06-24T06:37:36;35.07;;;19.37;;
71637;SDS011;59485;43.542;-5.676;2023-06-24T06:40:02;36.08;;;19.73;;
71637;SDS011;59485;43.542;-5.676;2023-06-24T06:42:28;32.60;;;18.95;;
71637;SDS011;59485;43.542;-5.676;2023-06-24T06:44:54;36.47;;;18.63;;
71637;SDS011;59485;43.542;-5.676;2023-06-24T06:47:20;36.53;;;19.17;;
71637;SDS011;59485;43.542;-5.676;2023-06-24T06:49:46;33.27;;;20.20;;
71637;SDS011;59485;43.542;-5.676;2023-06-24T06:52:11;30.33;;;17.65;;
71637;SDS011;59485;43.542;-5.676;2023-06-24T06:54:37;35.33;;;18.83;;
71637;SDS011;59485;43.542;-5.676;2023-06-24T06:57:03;33.03;;;18.73;;
71637;SDS011;59485;43.542;-5.676;2023-06-24T06:59:29;40.13;;;21.43;;
71637;SDS011;59485;43.542;-5.676;2023-06-24T07:01:55;31.05;;;18.45;;
71637;SDS011;59485;43.542;-5.676;2023-06-24T07:04:21;35.13;;;20.40;;
71637;SDS011;59485;43.542;-5.676;2023-06-24T07:06:47;32.63;;;19.23;;
71637;SDS011;59485;43.542;-5.676;2023-06-24T07:09:13;33.70;;;18.70;;
71637;SDS011;59485;43.542;-5.676;2023-06-24T07:11:40;32.65;;;19.05;;
71637;SDS011;59485;43.542;-5.676;2023-06-24T07:14:08;32.70;;;19.42;;
71637;SDS011;59485;43.542;-5.676;2023-06-24T07:16:34;34.10;;;19.53;;
71637;SDS011;59485;43.542;-5.676;2023-06-24T07:18:59;34.30;;;19.37;;
71637;SDS011;59485;43.542;-5.676;2023-06-24T07:21:25;35.25;;;19.98;;
71637;SDS011;59485;43.542;-5.676;2023-06-24T07:23:50;30.43;;;19.70;;
71637;SDS011;59485;43.542;-5.676;2023-06-24T07:26:16;29.90;;;18.60;;
71637;SDS011;59485;43.542;-5.676;2023-06-24T07:28:41;35.27;;;20.43;;
71637;SDS011;59485;43.542;-5.676;2023-06-24T07:31:07;33.10;;;19.67;;
71637;SDS011;59485;43.542;-5.676;2023-06-24T07:33:32;33.28;;;21.00;;
71637;SDS011;59485;43.542;-5.676;2023-06-24T07:35:59;34.23;;;20.90;;
71637;SDS011;59485;43.542;-5.676;2023-06-24T07:38:24;35.33;;;21.65;;
71637;SDS011;59485;43.542;-5.676;2023-06-24T07:40:50;35.57;;;20.57;;
71637;SDS011;59485;43.542;-5.676;2023-06-24T07:43:15;36.63;;;21.17;;
71637;SDS011;59485;43.542;-5.676;2023-06-24T07:45:44;33.55;;;20.50;;
71637;SDS011;59485;43.542;-5.676;2023-06-24T07:48:09;38.73;;;20.93;;
71637;SDS011;59485;43.542;-5.676;2023-06-24T07:50:35;35.40;;;20.07;;
71637;SDS011;59485;43.542;-5.676;2023-06-24T07:53:01;34.97;;;19.27;;
71637;SDS011;59485;43.542;-5.676;2023-06-24T07:55:27;32.20;;;20.02;;
71637;SDS011;59485;43.542;-5.676;2023-06-24T07:57:53;31.33;;;20.02;;
71637;SDS011;59485;43.542;-5.676;2023-06-24T08:00:18;29.90;;;18.80;;
71637;SDS011;59485;43.542;-5.676;2023-06-24T08:02:44;31.73;;;19.20;;
71637;SDS011;59485;43.542;-5.676;2023-06-24T08:05:09;28.13;;;17.27;;
71637;SDS011;59485;43.542;-5.676;2023-06-24T08:07:35;28.30;;;19.00;;
71637;SDS011;59485;43.542;-5.676;2023-06-24T08:10:01;31.10;;;19.25;;
71637;SDS011;59485;43.542;-5.676;2023-06-24T08:12:27;31.07;;;18.73;;
71637;SDS011;59485;43.542;-5.676;2023-06-24T08:14:52;32.38;;;18.95;;
71637;SDS011;59485;43.542;-5.676;2023-06-24T08:17:18;32.23;;;18.07;;
71637;SDS011;59485;43.542;-5.676;2023-06-24T08:19:44;33.40;;;18.27;;
71637;SDS011;59485;43.542;-5.676;2023-06-24T08:22:09;26.73;;;16.73;;
71637;SDS011;59485;43.542;-5.676;2023-06-24T08:24:35;25.50;;;16.97;;
71637;SDS011;59485;43.542;-5.676;2023-06-24T08:27:01;25.52;;;15.57;;
71637;SDS011;59485;43.542;-5.676;2023-06-24T08:29:27;29.03;;;16.77;;
71637;SDS011;59485;43.542;-5.676;2023-06-24T08:31:53;26.20;;;14.88;;
71637;SDS011;59485;43.542;-5.676;2023-06-24T08:34:18;24.13;;;16.87;;
71637;SDS011;59485;43.542;-5.676;2023-06-24T08:36:44;28.58;;;15.77;;
71637;SDS011;59485;43.542;-5.676;2023-06-24T08:39:09;24.93;;;15.67;;
71637;SDS011;59485;43.542;-5.676;2023-06-24T08:41:35;25.37;;;16.97;;
71637;SDS011;59485;43.542;-5.676;2023-06-24T08:44:00;25.45;;;15.50;;
71637;SDS011;59485;43.542;-5.676;2023-06-24T08:46:26;26.50;;;15.57;;
71637;SDS011;59485;43.542;-5.676;2023-06-24T08:48:54;28.38;;;16.13;;
71637;SDS011;59485;43.542;-5.676;2023-06-24T08:51:27;28.70;;;18.40;;
71637;SDS011;59485;43.542;-5.676;2023-06-24T08:53:56;33.07;;;18.93;;
71637;SDS011;59485;43.542;-5.676;2023-06-24T08:56:24;33.55;;;18.13;;
71637;SDS011;59485;43.542;-5.676;2023-06-24T08:58:50;29.08;;;17.65;;
71637;SDS011;59485;43.542;-5.676;2023-06-24T09:01:16;30.40;;;17.00;;
71637;SDS011;59485;43.542;-5.676;2023-06-24T09:03:42;31.73;;;17.42;;
71637;SDS011;59485;43.542;-5.676;2023-06-24T09:06:08;28.73;;;16.57;;
71637;SDS011;59485;43.542;-5.676;2023-06-24T09:08:33;26.33;;;16.40;;
71637;SDS011;59485;43.542;-5.676;2023-06-24T09:11:00;33.90;;;18.23;;
71637;SDS011;59485;43.542;-5.676;2023-06-24T09:13:35;33.60;;;17.50;;
71637;SDS011;59485;43.542;-5.676;2023-06-24T09:16:11;36.03;;;18.27;;
71637;SDS011;59485;43.542;-5.676;2023-06-24T09:18:41;31.00;;;18.20;;
71637;SDS011;59485;43.542;-5.676;2023-06-24T09:21:12;32.65;;;18.48;;
71637;SDS011;59485;43.542;-5.676;2023-06-24T09:23:38;30.63;;;17.85;;
71637;SDS011;59485;43.542;-5.676;2023-06-24T09:26:05;29.83;;;17.77;;
71637;SDS011;59485;43.542;-5.676;2023-06-24T09:28:34;31.02;;;19.00;;
71637;SDS011;59485;43.542;-5.676;2023-06-24T09:31:06;33.00;;;18.80;;
71637;SDS011;59485;43.542;-5.676;2023-06-24T09:33:35;33.28;;;19.10;;
71637;SDS011;59485;43.542;-5.676;2023-06-24T09:36:03;28.30;;;17.73;;
71637;SDS011;59485;43.542;-5.676;2023-06-24T09:38:34;33.25;;;19.55;;
71637;SDS011;59485;43.542;-5.676;2023-06-24T09:41:03;31.40;;;19.00;;
71637;SDS011;59485;43.542;-5.676;2023-06-24T09:43:30;30.63;;;18.90;;
71637;SDS011;59485;43.542;-5.676;2023-06-24T09:45:59;32.03;;;18.93;;
71637;SDS011;59485;43.542;-5.676;2023-06-24T09:48:27;30.88;;;18.35;;
71637;SDS011;59485;43.542;-5.676;2023-06-24T09:50:53;29.27;;;16.90;;
71637;SDS011;59485;43.542;-5.676;2023-06-24T09:53:23;30.60;;;19.33;;
71637;SDS011;59485;43.542;-5.676;2023-06-24T09:55:50;29.40;;;16.47;;
71637;SDS011;59485;43.542;-5.676;2023-06-24T09:58:16;28.83;;;16.52;;
71637;SDS011;59485;43.542;-5.676;2023-06-24T10:00:43;31.17;;;17.10;;
71637;SDS011;59485;43.542;-5.676;2023-06-24T10:03:09;28.60;;;16.80;;
71637;SDS011;59485;43.542;-5.676;2023-06-24T10:05:36;30.00;;;15.23;;
71637;SDS011;59485;43.542;-5.676;2023-06-24T10:08:02;26.00;;;16.23;;
71637;SDS011;59485;43.542;-5.676;2023-06-24T10:10:30;29.10;;;16.20;;
71637;SDS011;59485;43.542;-5.676;2023-06-24T10:12:56;25.60;;;15.80;;
71637;SDS011;59485;43.542;-5.676;2023-06-24T10:15:22;30.95;;;16.48;;
71637;SDS011;59485;43.542;-5.676;2023-06-24T10:17:50;32.75;;;18.95;;
71637;SDS011;59485;43.542;-5.676;2023-06-24T10:20:23;33.38;;;18.60;;
71637;SDS011;59485;43.542;-5.676;2023-06-24T10:22:51;33.92;;;19.35;;
71637;SDS011;59485;43.542;-5.676;2023-06-24T10:25:17;29.70;;;18.30;;
71637;SDS011;59485;43.542;-5.676;2023-06-24T10:27:43;26.88;;;17.15;;
71637;SDS011;59485;43.542;-5.676;2023-06-24T10:30:16;27.77;;;18.38;;
71637;SDS011;59485;43.542;-5.676;2023-06-24T10:32:44;28.38;;;17.58;;
71637;SDS011;59485;43.542;-5.676;2023-06-24T10:35:26;29.43;;;16.33;;
71637;SDS011;59485;43.542;-5.676;2023-06-24T10:38:01;23.67;;;15.98;;
71637;SDS011;59485;43.542;-5.676;2023-06-24T10:43:04;24.23;;;13.33;;
71637;SDS011;59485;43.542;-5.676;2023-06-24T10:45:52;25.40;;;13.95;;
71637;SDS011;59485;43.542;-5.676;2023-06-24T10:48:22;20.67;;;14.25;;
71637;SDS011;59485;43.542;-5.676;2023-06-24T10:50:50;22.98;;;14.00;;
71637;SDS011;59485;43.542;-5.676;2023-06-24T10:53:16;24.85;;;14.20;;
71637;SDS011;59485;43.542;-5.676;2023-06-24T10:55:45;22.87;;;13.30;;
71637;SDS011;59485;43.542;-5.676;2023-06-24T10:58:13;24.33;;;13.07;;
71637;SDS011;59485;43.542;-5.676;2023-06-24T11:00:40;21.80;;;13.80;;
71637;SDS011;59485;43.542;-5.676;2023-06-24T11:05:42;24.55;;;14.63;;
71637;SDS011;59485;43.542;-5.676;2023-06-24T11:08:09;22.77;;;12.87;;
71637;SDS011;59485;43.542;-5.676;2023-06-24T11:10:44;25.15;;;12.80;;
71637;SDS011;59485;43.542;-5.676;2023-06-24T11:13:13;24.67;;;14.70;;
71637;SDS011;59485;43.542;-5.676;2023-06-24T11:15:40;24.90;;;13.75;;
71637;SDS011;59485;43.542;-5.676;2023-06-24T11:18:08;16.83;;;12.25;;
71637;SDS011;59485;43.542;-5.676;2023-06-24T11:20:38;19.83;;;12.77;;
71637;SDS011;59485;43.542;-5.676;2023-06-24T11:23:10;18.95;;;11.52;;
71637;SDS011;59485;43.542;-5.676;2023-06-24T11:25:42;19.85;;;12.63;;
71637;SDS011;59485;43.542;-5.676;2023-06-24T11:28:18;20.48;;;11.82;;
71637;SDS011;59485;43.542;-5.676;2023-06-24T11:30:44;18.08;;;11.48;;
71637;SDS011;59485;43.542;-5.676;2023-06-24T11:33:09;21.53;;;13.13;;
71637;SDS011;59485;43.542;-5.676;2023-06-24T11:35:35;18.07;;;11.20;;
71637;SDS011;59485;43.542;-5.676;2023-06-24T11:38:02;21.58;;;12.13;;
71637;SDS011;59485;43.542;-5.676;2023-06-24T11:40:27;19.98;;;11.73;;
71637;SDS011;59485;43.542;-5.676;2023-06-24T11:42:56;17.67;;;12.13;;
71637;SDS011;59485;43.542;-5.676;2023-06-24T11:45:22;21.17;;;12.23;;
71637;SDS011;59485;43.542;-5.676;2023-06-24T11:47:47;23.40;;;12.40;;
71637;SDS011;59485;43.542;-5.676;2023-06-24T11:50:13;18.75;;;12.77;;
71637;SDS011;59485;43.542;-5.676;2023-06-24T11:55:26;22.38;;;13.07;;
71637;SDS011;59485;43.542;-5.676;2023-06-24T11:57:53;19.02;;;12.93;;
71637;SDS011;59485;43.542;-5.676;2023-06-24T12:00:31;19.30;;;11.93;;
71637;SDS011;59485;43.542;-5.676;2023-06-24T12:02:59;20.45;;;12.63;;
71637;SDS011;59485;43.542;-5.676;2023-06-24T12:08:00;19.70;;;12.73;;
71637;SDS011;59485;43.542;-5.676;2023-06-24T12:10:27;19.65;;;12.40;;
71637;SDS011;59485;43.542;-5.676;2023-06-24T12:13:00;19.10;;;11.55;;
71637;SDS011;59485;43.542;-5.676;2023-06-24T12:15:27;19.10;;;12.90;;
71637;SDS011;59485;43.542;-5.676;2023-06-24T12:17:53;18.43;;;11.90;;
71637;SDS011;59485;43.542;-5.676;2023-06-24T12:20:19;17.15;;;11.43;;
71637;SDS011;59485;43.542;-5.676;2023-06-24T12:22:46;21.77;;;11.88;;
71637;SDS011;59485;43.542;-5.676;2023-06-24T12:25:16;22.85;;;12.63;;
71637;SDS011;59485;43.542;-5.676;2023-06-24T12:27:42;20.67;;;12.27;;
71637;SDS011;59485;43.542;-5.676;2023-06-24T12:30:09;20.50;;;10.93;;
71637;SDS011;59485;43.542;-5.676;2023-06-24T12:32:35;22.60;;;11.98;;
71637;SDS011;59485;43.542;-5.676;2023-06-24T12:35:02;19.85;;;12.10;;
71637;SDS011;59485;43.542;-5.676;2023-06-24T12:37:31;18.58;;;10.35;;
71637;SDS011;59485;43.542;-5.676;2023-06-24T12:39:58;20.38;;;10.60;;
71637;SDS011;59485;43.542;-5.676;2023-06-24T12:42:24;18.83;;;9.93;;
71637;SDS011;59485;43.542;-5.676;2023-06-24T12:44:51;16.95;;;10.63;;
71637;SDS011;59485;43.542;-5.676;2023-06-24T12:47:16;17.70;;;10.77;;
71637;SDS011;59485;43.542;-5.676;2023-06-24T12:49:42;19.98;;;10.07;;
71637;SDS011;59485;43.542;-5.676;2023-06-24T12:52:07;22.13;;;9.63;;
71637;SDS011;59485;43.542;-5.676;2023-06-24T12:54:33;18.33;;;10.00;;
71637;SDS011;59485;43.542;-5.676;2023-06-24T12:56:58;20.55;;;9.82;;
71637;SDS011;59485;43.542;-5.676;2023-06-24T12:59:24;17.37;;;10.00;;
71637;SDS011;59485;43.542;-5.676;2023-06-24T13:01:49;28.57;;;10.33;;
71637;SDS011;59485;43.542;-5.676;2023-06-24T13:04:15;27.33;;;9.98;;
71637;SDS011;59485;43.542;-5.676;2023-06-24T13:06:43;24.60;;;9.93;;
71637;SDS011;59485;43.542;-5.676;2023-06-24T13:09:08;21.03;;;9.37;;
71637;SDS011;59485;43.542;-5.676;2023-06-24T13:11:34;22.57;;;10.40;;
71637;SDS011;59485;43.542;-5.676;2023-06-24T13:13:59;26.05;;;9.73;;
71637;SDS011;59485;43.542;-5.676;2023-06-24T13:16:25;33.97;;;10.57;;
71637;SDS011;59485;43.542;-5.676;2023-06-24T13:18:50;28.23;;;11.23;;
71637;SDS011;59485;43.542;-5.676;2023-06-24T13:21:16;27.25;;;11.70;;
71637;SDS011;59485;43.542;-5.676;2023-06-24T13:23:41;30.97;;;10.87;;
71637;SDS011;59485;43.542;-5.676;2023-06-24T13:26:07;25.77;;;9.40;;
71637;SDS011;59485;43.542;-5.676;2023-06-24T13:28:32;29.85;;;10.32;;
71637;SDS011;59485;43.542;-5.676;2023-06-24T13:30:58;27.43;;;11.00;;
71637;SDS011;59485;43.542;-5.676;2023-06-24T13:33:24;27.05;;;10.45;;
71637;SDS011;59485;43.542;-5.676;2023-06-24T13:35:50;23.20;;;10.40;;
71637;SDS011;59485;43.542;-5.676;2023-06-24T13:38:16;27.25;;;10.35;;
71637;SDS011;59485;43.542;-5.676;2023-06-24T13:40:45;22.55;;;9.65;;
71637;SDS011;59485;43.542;-5.676;2023-06-24T13:43:11;20.67;;;9.97;;
71637;SDS011;59485;43.542;-5.676;2023-06-24T13:45:36;26.83;;;10.02;;
71637;SDS011;59485;43.542;-5.676;2023-06-24T13:48:02;25.83;;;9.43;;
71637;SDS011;59485;43.542;-5.676;2023-06-24T13:50:28;27.27;;;10.13;;
71637;SDS011;59485;43.542;-5.676;2023-06-24T13:52:54;23.37;;;10.57;;
71637;SDS011;59485;43.542;-5.676;2023-06-24T13:55:20;27.23;;;12.55;;
71637;SDS011;59485;43.542;-5.676;2023-06-24T13:57:46;24.83;;;12.63;;
71637;SDS011;59485;43.542;-5.676;2023-06-24T14:00:12;30.70;;;11.60;;
71637;SDS011;59485;43.542;-5.676;2023-06-24T14:02:38;27.88;;;11.98;;
71637;SDS011;59485;43.542;-5.676;2023-06-24T14:05:05;28.88;;;11.95;;
71637;SDS011;59485;43.542;-5.676;2023-06-24T14:07:31;26.20;;;14.57;;
71637;SDS011;59485;43.542;-5.676;2023-06-24T14:09:56;28.33;;;15.17;;
71637;SDS011;59485;43.542;-5.676;2023-06-24T14:12:22;30.80;;;13.93;;
71637;SDS011;59485;43.542;-5.676;2023-06-24T14:14:47;30.53;;;14.30;;
71637;SDS011;59485;43.542;-5.676;2023-06-24T14:17:14;29.00;;;15.95;;
71637;SDS011;59485;43.542;-5.676;2023-06-24T14:19:40;36.77;;;13.93;;
71637;SDS011;59485;43.542;-5.676;2023-06-24T14:22:06;27.95;;;12.25;;
71637;SDS011;59485;43.542;-5.676;2023-06-24T14:24:32;29.57;;;12.03;;
71637;SDS011;59485;43.542;-5.676;2023-06-24T14:26:57;26.55;;;11.30;;
71637;SDS011;59485;43.542;-5.676;2023-06-24T14:29:23;23.43;;;11.00;;
71637;SDS011;59485;43.542;-5.676;2023-06-24T14:31:50;23.98;;;10.98;;
71637;SDS011;59485;43.542;-5.676;2023-06-24T14:34:16;31.05;;;10.85;;
71637;SDS011;59485;43.542;-5.676;2023-06-24T14:36:45;28.08;;;10.70;;
71637;SDS011;59485;43.542;-5.676;2023-06-24T14:39:13;35.10;;;10.33;;
71637;SDS011;59485;43.542;-5.676;2023-06-24T14:41:41;28.27;;;10.27;;
71637;SDS011;59485;43.542;-5.676;2023-06-24T14:44:09;47.83;;;12.68;;
71637;SDS011;59485;43.542;-5.676;2023-06-24T14:46:34;32.37;;;11.13;;
71637;SDS011;59485;43.542;-5.676;2023-06-24T14:49:00;37.28;;;9.88;;